METAR Data
IDs: Format: Raw Decoded Include TAF

Data at: 1314 UTC 07 Jul 2020

KCAE 071256Z 09005KT 6SM -RA BR SCT006 BKN065 OVC090 23/22 A3002 RMK AO2 SLP162 P0003 T02330222
KCAE 071228Z 07005KT 5SM -RA BR SCT006 BKN033 OVC100 23/22 A3002 RMK AO2 P0002 T02330222
KCAE 071156Z 09005KT 8SM -RA FEW004 BKN014 OVC110 23/22 A3001 RMK AO2 RAB18 SLP161 P0000 60008 70022 T02280222 10233 20228 51004
KCAE 071149Z 08005KT 10SM -RA SCT012 BKN055 OVC095 23/22 A3001 RMK AO2 RAB18 P0000 T02280217
KCAE 071112Z 09005KT 10SM SCT003 BKN018 OVC100 23/22 A3001 RMK AO2 T02280217
KCAE 071056Z 09006KT 10SM BKN003 OVC037 23/22 A3001 RMK AO2 SLP159 T02280217
KCAE 071054Z 08007KT 10SM BKN003 OVC037 23/22 A3001 RMK AO2
KCAE 071037Z 11004KT 10SM SCT004 OVC036 23/22 A3001 RMK AO2 T02280217
KCAE 071026Z 08005KT 10SM BKN004 OVC034 23/22 A3001 RMK AO2 T02280217
KCAE 071019Z 09005KT 10SM SCT004 OVC034 23/22 A3001 RMK AO2 T02280217
KCAE 071004Z 08005KT 10SM BKN004 OVC045 23/22 A3000 RMK AO2 T02280217
KCAE 070956Z 06005KT 10SM BKN005 OVC043 23/22 A3000 RMK AO2 RAB05E34B42E54 SLP156 P0002 T02280217
KCAE 070941Z 09007KT 9SM BKN005 BKN027 OVC049 23/22 A3000 RMK AO2 RAB05E34 CIG 003V008 P0002 T02280217
KCAE 070856Z 09005KT 10SM BKN004 OVC017 23/22 A3000 RMK AO2 RAB15E51 SLP156 P0006 60006 T02280222 56013
KCAE 070844Z 10005KT 9SM -RA OVC004 23/22 A3000 RMK AO2 RAB15 P0006 T02280222
KCAE 070831Z 00000KT 2 1/2SM +RA BR BKN004 OVC021 23/22 A3000 RMK AO2 RAB15 P0002 T02280222
KCAE 070812Z 08005KT 9SM SCT004 BKN019 OVC090 23/22 A3000 RMK AO2 T02330217
KCAE 070805Z 08005KT 10SM FEW004 SCT019 OVC095 23/22 A3000 RMK AO2 T02330217
KCAE 070756Z 08005KT 10SM FEW003 BKN019 OVC095 23/22 A3001 RMK AO2 SLP157 T02280217
KCAE 070745Z 09006KT 10SM SCT003 BKN019 OVC095 23/22 A3001 RMK AO2 T02280217
KCAE 070733Z 08007KT 9SM BKN003 BKN022 OVC090 23/22 A3001 RMK AO2 T02330222
KCAE 070656Z 09005KT 10SM SCT004 BKN024 OVC080 23/22 A3002 RMK AO2 SLP162 T02280217
KCAE 070649Z 10004KT 10SM FEW004 BKN026 OVC080 23/22 A3002 RMK AO2 T02280217
KCAE 070633Z 12003KT 10SM FEW004 BKN075 OVC090 23/22 A3003 RMK AO2 T02280217
KCAE 070556Z 11004KT 10SM BKN039 OVC090 23/22 A3004 RMK AO2 SLP169 60007 T02330217 10239 20233 50003
KCAE 070523Z 12004KT 10SM SCT010 BKN036 23/22 A3005 RMK AO2 T02330222
KCAE 070456Z 08006KT 10SM BKN010 23/22 A3005 RMK AO2 CIG 007V014 SLP171 T02330222 403110228
KCAE 070417Z 06005KT 10SM BKN007 23/22 A3004 RMK AO2 T02330222
KCAE 070403Z 08004KT 10SM SCT008 23/22 A3004 RMK AO2 T02330222
KCAE 070356Z 07003KT 10SM FEW008 BKN015 OVC020 23/22 A3004 RMK AO2 RAB0259E10 SLP169 P0000 T02330222
KCAE 070321Z 06005KT 10SM FEW008 BKN015 OVC020 24/22 A3004 RMK AO2 RAB0259E10 P0000 T02390222
KCAE 070256Z 00000KT 10SM BKN017 OVC026 23/22 A3003 RMK AO2 RAE40 SLP166 P0006 60007 T02330222 56005
KCAE 070240Z 00000KT 10SM BKN020 BKN028 OVC065 23/22 A3004 RMK AO2 RAE40 P0006 T02330222
KCAE 070156Z 08004KT 10SM -RA FEW026 BKN055 OVC120 23/22 A3003 RMK AO2 RAE18B52 SLP167 P0000 T02330217
KCAE 070056Z 09004KT 10SM -RA FEW030 SCT120 OVC150 23/22 A3003 RMK AO2 SLP167 P0001 T02330217
KCAE 062356Z 11003KT 10SM -RA FEW030 BKN110 OVC150 24/22 A3005 RMK AO2 RAE10B27 SLP171 P0001 60007 T02390217 10311 20233 51009
KCAE 062256Z 21003KT 10SM -RA FEW012 BKN090 BKN120 OVC180 24/22 A3004 RMK AO2 RAE12B26 SLP170 P0000 T02390217
KCAE 062220Z 16003KT 10SM FEW012 BKN029 OVC060 24/22 A3005 RMK AO2 LTG DSNT SE RAE12 OCNL LTG DSNT SE P0000 T02390217
KCAE 062156Z 12005KT 10SM -RA SCT044 BKN080 OVC120 24/22 A3004 RMK AO2 LTG DSNT SW SLP169 OCNL LTG DSNT SW P0001 T02440217
KCAE 062107Z 17005KT 10SM -RA FEW022 SCT100 BKN110 OVC200 24/22 A3002 RMK AO2 LTG DSNT ALQDS OCNL LTG DSNT ALQDS P0000 T02440217
KCAE 062056Z 17006KT 10SM VCTS -RA SCT022CB BKN070 BKN110 BKN200 24/22 A3002 RMK AO2 LTG DSNT S TSE34E40 SLP163 LTG DSNT S TS S MOV NW CB S MOV NW P0005 60005 T02440217 53000
KCAE 062042Z 14010G15KT 3SM VCTS RA SCT020 BKN028 BKN120 BKN200 26/23 A3003 RMK AO2 LTG DSNT SE AND S AND NW TSE34E40 OCNL LTG DSNT SE AND S AND NW TSE32 P0004 T02560228
KCAE 062034Z 19003KT 2 1/2SM +RA BR SCT020 BKN028 BKN120 BKN200 25/23 A3003 RMK AO2 VIS 1 1/4V5 LTG DSNT SE AND S AND NW TSE34 OCNL LTG DSNT SE AND S AND NW TS NW MOV N P0001 T02500228
KCAE 062004Z 22005KT 7SM -TSRA BKN026CB BKN055 BKN090 25/22 A3003 RMK AO2 LTG DSNT ALQDS LTG DSNT SE-W TS W MOV N P0000 T02500222
KCAE 061956Z 23007KT 8SM -TSRA FEW065CB BKN080 BKN110 BKN200 26/22 A3002 RMK AO2 LTG DSNT SE-W RAB51 TSB02 SLP161 OCNL LTGIC SE-W TS W MOV N CB SW P0000 T02610222
KCAE 061907Z 09012KT 10SM TS FEW050CB SCT065 BKN110 31/22 A3001 RMK AO2 LTG DSNT S-W TSB02 OCNL LTGIC S-W TS SW CB SW T03060217
KCAE 061856Z 10013KT 10SM VCTS FEW050CB SCT065 BKN110 31/22 A3001 RMK AO2 LTG DSNT S-W TSE52 SLP159 TS VC SW CB DSNT SW AND W T03110222
KCAE 061756Z 14007KT 10SM FEW020 SCT025 BKN100 BKN180 30/23 A3002 RMK AO2 SLP162 T03000233 10300 20239 58015
KCAE 061711Z 00000KT 10SM BKN025 BKN032 BKN100 29/22 A3004 RMK AO2 T02940222
KCAE 061656Z 14005KT 10SM SCT025 BKN031 BKN090 29/22 A3005 RMK AO2 SLP172 T02940222
KCAE 061622Z 00000KT 10SM SCT025 BKN100 28/22 A3006 RMK AO2 LTG DSNT NE-SE T02830222
KCAE 061556Z 17006KT 10SM BKN024 BKN065 29/22 A3006 RMK AO2 LTG DSNT E AND SE SLP177 T02890217
KCAE 061545Z 16005KT 10SM BKN024 28/22 A3006 RMK AO2 LTG DSNT N-SE T02830222
KCAE 061456Z 17005KT 10SM FEW019 OVC065 27/21 A3006 RMK AO2 SLP177 T02720211 51013
KCAE 061445Z 19004KT 10SM SCT019 SCT035 OVC060 27/22 A3007 RMK AO2 T02720217
KCAE 061428Z 20003KT 10SM BKN019 BKN037 27/22 A3006 RMK AO2 T02720217
KCAE 061356Z 17006KT 10SM SCT015 SCT025 BKN180 27/22 A3005 RMK AO2 SLP173 T02670217
KCAE 061256Z 13004KT 10SM FEW007 BKN150 25/22 A3004 RMK AO2 SLP170 T02500222
KCAE 061156Z 09004KT 10SM SCT009 SCT150 24/22 A3003 RMK AO2 SLP165 60005 70005 T02390217 10244 20228 51014
KCAE 061146Z 10004KT 10SM SCT009 SCT015 BKN150 23/22 A3003 RMK AO2 T02330217
KCAE 061133Z 12004KT 10SM SCT013 BKN150 23/22 A3003 RMK AO2 T02330217
KCAE 061118Z 09004KT 10SM BKN013 BKN150 23/22 A3003 RMK AO2 T02330217
KCAE 061056Z 08003KT 10SM FEW014 BKN150 23/22 A3001 RMK AO2 RAB0958E23 SLP160 P0005 T02280217
KCAE 060956Z 13004KT 10SM SCT019 BKN031 OVC080 23/21 A3001 RMK AO2 SLP157 T02330211
KCAE 060904Z 12006KT 10SM SCT018 BKN050 23/21 A2998 RMK AO2 T02280206
KCAE 060856Z 11004KT 10SM BKN018 BKN050 23/21 A2999 RMK AO2 SLP151 T02280211 56003
KCAE 060854Z 10004KT 10SM BKN018 BKN050 23/21 A2999 RMK AO2
KCAE 060756Z 12003KT 10SM CLR 23/21 A2998 RMK AO2 SLP148 T02330211
KCAE 060656Z 09005KT 10SM FEW019 SCT027 24/21 A2999 RMK AO2 SLP154 T02390206
KCAE 060556Z 07005KT 10SM FEW150 24/21 A3000 RMK AO2 SLP155 T02440206 10306 20239 50001
KCAE 060456Z 11004KT 10SM FEW150 24/21 A3002 RMK AO2 SLP161 T02390206 403330217
KCAE 060356Z 11004KT 10SM SCT250 25/20 A3001 RMK AO2 SLP157 T02500200
KCAE 060256Z 13005KT 10SM SCT250 26/19 A2999 RMK AO2 SLP154 T02610194 51018
KCAE 060156Z 12005KT 10SM SCT250 27/20 A2998 RMK AO2 SLP147 T02720200